sensor_id;sensor_type;location;lat;lon;timestamp;P1;durP1;ratioP1;P2;durP2;ratioP2
37983;SDS011;64625;50.882;4.376;2023-05-07T00:00:37;9.48;;;3.13;;
37983;SDS011;64625;50.882;4.376;2023-05-07T00:03:03;10.23;;;3.20;;
37983;SDS011;64625;50.882;4.376;2023-05-07T00:05:29;17.30;;;3.92;;
37983;SDS011;64625;50.882;4.376;2023-05-07T00:07:55;8.38;;;3.95;;
37983;SDS011;64625;50.882;4.376;2023-05-07T00:10:21;11.57;;;4.10;;
37983;SDS011;64625;50.882;4.376;2023-05-07T00:12:46;15.05;;;5.75;;
37983;SDS011;64625;50.882;4.376;2023-05-07T00:15:12;13.13;;;3.38;;
37983;SDS011;64625;50.882;4.376;2023-05-07T00:17:38;11.07;;;3.22;;
37983;SDS011;64625;50.882;4.376;2023-05-07T00:20:04;5.18;;;2.20;;
37983;SDS011;64625;50.882;4.376;2023-05-07T00:22:31;8.48;;;3.30;;
37983;SDS011;64625;50.882;4.376;2023-05-07T00:24:57;16.60;;;5.03;;
37983;SDS011;64625;50.882;4.376;2023-05-07T00:27:24;8.02;;;3.05;;
37983;SDS011;64625;50.882;4.376;2023-05-07T00:29:50;8.38;;;3.17;;
37983;SDS011;64625;50.882;4.376;2023-05-07T00:32:16;8.30;;;2.95;;
37983;SDS011;64625;50.882;4.376;2023-05-07T00:34:42;7.60;;;2.50;;
37983;SDS011;64625;50.882;4.376;2023-05-07T00:37:08;11.48;;;3.20;;
37983;SDS011;64625;50.882;4.376;2023-05-07T00:39:35;6.85;;;3.08;;
37983;SDS011;64625;50.882;4.376;2023-05-07T00:42:01;12.65;;;2.90;;
37983;SDS011;64625;50.882;4.376;2023-05-07T00:44:28;11.73;;;3.35;;
37983;SDS011;64625;50.882;4.376;2023-05-07T00:46:56;25.45;;;3.55;;
37983;SDS011;64625;50.882;4.376;2023-05-07T00:49:24;10.32;;;3.25;;
37983;SDS011;64625;50.882;4.376;2023-05-07T00:52:07;11.27;;;3.00;;
37983;SDS011;64625;50.882;4.376;2023-05-07T00:54:36;5.85;;;2.47;;
37983;SDS011;64625;50.882;4.376;2023-05-07T00:57:02;13.77;;;3.30;;
37983;SDS011;64625;50.882;4.376;2023-05-07T00:59:30;11.18;;;2.83;;
37983;SDS011;64625;50.882;4.376;2023-05-07T01:01:57;9.98;;;3.28;;
37983;SDS011;64625;50.882;4.376;2023-05-07T01:04:22;5.20;;;2.78;;
37983;SDS011;64625;50.882;4.376;2023-05-07T01:06:49;9.23;;;3.00;;
37983;SDS011;64625;50.882;4.376;2023-05-07T01:09:15;7.03;;;2.53;;
37983;SDS011;64625;50.882;4.376;2023-05-07T01:11:42;10.43;;;2.95;;
37983;SDS011;64625;50.882;4.376;2023-05-07T01:14:09;20.27;;;3.00;;
37983;SDS011;64625;50.882;4.376;2023-05-07T01:16:36;8.70;;;2.95;;
37983;SDS011;64625;50.882;4.376;2023-05-07T01:19:02;7.32;;;3.38;;
37983;SDS011;64625;50.882;4.376;2023-05-07T01:21:32;10.50;;;3.85;;
37983;SDS011;64625;50.882;4.376;2023-05-07T01:24:00;10.88;;;3.50;;
37983;SDS011;64625;50.882;4.376;2023-05-07T01:26:26;16.98;;;3.00;;
37983;SDS011;64625;50.882;4.376;2023-05-07T01:28:52;9.73;;;2.58;;
37983;SDS011;64625;50.882;4.376;2023-05-07T01:31:18;8.48;;;3.30;;
37983;SDS011;64625;50.882;4.376;2023-05-07T01:33:45;7.40;;;2.70;;
37983;SDS011;64625;50.882;4.376;2023-05-07T01:36:13;13.02;;;3.05;;
37983;SDS011;64625;50.882;4.376;2023-05-07T01:38:40;6.65;;;2.67;;
37983;SDS011;64625;50.882;4.376;2023-05-07T01:41:07;9.20;;;2.97;;
37983;SDS011;64625;50.882;4.376;2023-05-07T01:43:33;12.77;;;3.50;;
37983;SDS011;64625;50.882;4.376;2023-05-07T01:45:59;8.32;;;2.88;;
37983;SDS011;64625;50.882;4.376;2023-05-07T01:48:27;10.05;;;3.03;;
37983;SDS011;64625;50.882;4.376;2023-05-07T01:50:54;10.68;;;3.53;;
37983;SDS011;64625;50.882;4.376;2023-05-07T01:53:20;7.70;;;3.20;;
37983;SDS011;64625;50.882;4.376;2023-05-07T01:55:46;8.65;;;3.22;;
37983;SDS011;64625;50.882;4.376;2023-05-07T01:58:12;12.35;;;3.17;;
37983;SDS011;64625;50.882;4.376;2023-05-07T02:00:39;11.23;;;3.45;;
37983;SDS011;64625;50.882;4.376;2023-05-07T02:03:05;8.50;;;2.75;;
37983;SDS011;64625;50.882;4.376;2023-05-07T02:05:31;8.05;;;3.72;;
37983;SDS011;64625;50.882;4.376;2023-05-07T02:07:57;7.25;;;3.15;;
37983;SDS011;64625;50.882;4.376;2023-05-07T02:10:23;9.32;;;3.13;;
37983;SDS011;64625;50.882;4.376;2023-05-07T02:12:49;9.70;;;2.53;;
37983;SDS011;64625;50.882;4.376;2023-05-07T02:15:15;9.20;;;3.05;;
37983;SDS011;64625;50.882;4.376;2023-05-07T02:18:02;6.30;;;3.13;;
37983;SDS011;64625;50.882;4.376;2023-05-07T02:20:34;9.63;;;3.47;;
37983;SDS011;64625;50.882;4.376;2023-05-07T02:23:00;13.23;;;3.55;;
37983;SDS011;64625;50.882;4.376;2023-05-07T02:25:26;13.38;;;3.50;;
37983;SDS011;64625;50.882;4.376;2023-05-07T02:27:52;14.95;;;3.80;;
37983;SDS011;64625;50.882;4.376;2023-05-07T02:30:17;10.73;;;3.53;;
37983;SDS011;64625;50.882;4.376;2023-05-07T02:32:43;9.63;;;3.25;;
37983;SDS011;64625;50.882;4.376;2023-05-07T02:35:09;9.40;;;2.85;;
37983;SDS011;64625;50.882;4.376;2023-05-07T02:37:35;18.23;;;3.70;;
37983;SDS011;64625;50.882;4.376;2023-05-07T02:40:02;11.98;;;3.60;;
37983;SDS011;64625;50.882;4.376;2023-05-07T02:42:30;11.48;;;3.30;;
37983;SDS011;64625;50.882;4.376;2023-05-07T02:44:56;8.15;;;3.22;;
37983;SDS011;64625;50.882;4.376;2023-05-07T02:47:22;11.82;;;3.03;;
37983;SDS011;64625;50.882;4.376;2023-05-07T02:49:47;8.65;;;3.40;;
37983;SDS011;64625;50.882;4.376;2023-05-07T02:52:13;13.68;;;3.33;;
37983;SDS011;64625;50.882;4.376;2023-05-07T02:54:39;8.38;;;2.55;;
37983;SDS011;64625;50.882;4.376;2023-05-07T02:57:07;14.35;;;3.97;;
37983;SDS011;64625;50.882;4.376;2023-05-07T02:59:33;14.23;;;3.90;;
37983;SDS011;64625;50.882;4.376;2023-05-07T03:01:59;6.35;;;2.72;;
37983;SDS011;64625;50.882;4.376;2023-05-07T03:04:25;10.13;;;3.53;;
37983;SDS011;64625;50.882;4.376;2023-05-07T03:06:51;12.77;;;3.97;;
37983;SDS011;64625;50.882;4.376;2023-05-07T03:09:18;6.00;;;3.38;;
37983;SDS011;64625;50.882;4.376;2023-05-07T03:11:43;12.10;;;3.40;;
37983;SDS011;64625;50.882;4.376;2023-05-07T03:14:09;15.23;;;4.30;;
37983;SDS011;64625;50.882;4.376;2023-05-07T03:16:35;15.10;;;4.38;;
37983;SDS011;64625;50.882;4.376;2023-05-07T03:19:02;8.88;;;3.78;;
37983;SDS011;64625;50.882;4.376;2023-05-07T03:21:28;13.05;;;3.05;;
37983;SDS011;64625;50.882;4.376;2023-05-07T03:23:54;6.90;;;3.38;;
37983;SDS011;64625;50.882;4.376;2023-05-07T03:26:19;8.45;;;3.72;;
37983;SDS011;64625;50.882;4.376;2023-05-07T03:28:46;11.05;;;4.57;;
37983;SDS011;64625;50.882;4.376;2023-05-07T03:31:12;14.13;;;4.43;;
37983;SDS011;64625;50.882;4.376;2023-05-07T03:33:39;9.45;;;4.20;;
37983;SDS011;64625;50.882;4.376;2023-05-07T03:36:21;17.30;;;4.65;;
37983;SDS011;64625;50.882;4.376;2023-05-07T03:38:47;16.40;;;4.00;;
37983;SDS011;64625;50.882;4.376;2023-05-07T03:41:14;9.48;;;4.45;;
37983;SDS011;64625;50.882;4.376;2023-05-07T03:43:40;10.45;;;4.05;;
37983;SDS011;64625;50.882;4.376;2023-05-07T03:46:05;8.98;;;3.55;;
37983;SDS011;64625;50.882;4.376;2023-05-07T03:48:32;6.85;;;3.53;;
37983;SDS011;64625;50.882;4.376;2023-05-07T03:50:58;10.52;;;4.32;;
37983;SDS011;64625;50.882;4.376;2023-05-07T03:53:24;9.98;;;4.75;;
37983;SDS011;64625;50.882;4.376;2023-05-07T03:55:50;15.85;;;5.63;;
37983;SDS011;64625;50.882;4.376;2023-05-07T03:58:16;10.40;;;5.22;;
37983;SDS011;64625;50.882;4.376;2023-05-07T04:00:42;12.50;;;4.07;;
37983;SDS011;64625;50.882;4.376;2023-05-07T04:03:08;16.83;;;4.57;;
37983;SDS011;64625;50.882;4.376;2023-05-07T04:05:33;11.55;;;4.15;;
37983;SDS011;64625;50.882;4.376;2023-05-07T04:07:59;18.92;;;4.18;;
37983;SDS011;64625;50.882;4.376;2023-05-07T04:10:26;12.10;;;5.68;;
37983;SDS011;64625;50.882;4.376;2023-05-07T04:12:53;13.20;;;3.90;;
37983;SDS011;64625;50.882;4.376;2023-05-07T04:15:21;10.68;;;3.70;;
37983;SDS011;64625;50.882;4.376;2023-05-07T04:17:47;8.23;;;4.10;;
37983;SDS011;64625;50.882;4.376;2023-05-07T04:20:14;23.40;;;4.63;;
37983;SDS011;64625;50.882;4.376;2023-05-07T04:22:42;14.35;;;5.50;;
37983;SDS011;64625;50.882;4.376;2023-05-07T04:25:08;14.65;;;4.80;;
37983;SDS011;64625;50.882;4.376;2023-05-07T04:27:35;16.90;;;4.85;;
37983;SDS011;64625;50.882;4.376;2023-05-07T04:30:01;13.88;;;5.35;;
37983;SDS011;64625;50.882;4.376;2023-05-07T04:32:28;10.77;;;5.13;;
37983;SDS011;64625;50.882;4.376;2023-05-07T04:34:54;11.63;;;4.90;;
37983;SDS011;64625;50.882;4.376;2023-05-07T04:37:21;10.77;;;4.72;;
37983;SDS011;64625;50.882;4.376;2023-05-07T04:39:47;12.25;;;4.15;;
37983;SDS011;64625;50.882;4.376;2023-05-07T04:42:16;11.60;;;4.78;;
37983;SDS011;64625;50.882;4.376;2023-05-07T04:44:43;14.52;;;5.35;;
37983;SDS011;64625;50.882;4.376;2023-05-07T04:47:10;14.48;;;4.63;;
37983;SDS011;64625;50.882;4.376;2023-05-07T04:49:36;6.55;;;4.30;;
37983;SDS011;64625;50.882;4.376;2023-05-07T04:52:03;12.45;;;4.22;;
37983;SDS011;64625;50.882;4.376;2023-05-07T04:54:29;11.93;;;4.50;;
37983;SDS011;64625;50.882;4.376;2023-05-07T04:56:55;14.65;;;3.95;;
37983;SDS011;64625;50.882;4.376;2023-05-07T04:59:21;12.05;;;4.18;;
37983;SDS011;64625;50.882;4.376;2023-05-07T05:01:47;15.68;;;4.70;;
37983;SDS011;64625;50.882;4.376;2023-05-07T05:04:17;14.32;;;5.20;;
37983;SDS011;64625;50.882;4.376;2023-05-07T05:06:43;11.07;;;5.95;;
37983;SDS011;64625;50.882;4.376;2023-05-07T05:09:08;12.77;;;4.93;;
37983;SDS011;64625;50.882;4.376;2023-05-07T05:11:34;11.75;;;5.07;;
37983;SDS011;64625;50.882;4.376;2023-05-07T05:14:00;13.63;;;4.80;;
37983;SDS011;64625;50.882;4.376;2023-05-07T05:16:27;16.85;;;6.03;;
37983;SDS011;64625;50.882;4.376;2023-05-07T05:18:53;20.65;;;6.15;;
37983;SDS011;64625;50.882;4.376;2023-05-07T05:21:20;19.83;;;5.05;;
37983;SDS011;64625;50.882;4.376;2023-05-07T05:23:46;20.30;;;5.18;;
37983;SDS011;64625;50.882;4.376;2023-05-07T05:26:15;12.02;;;5.25;;
37983;SDS011;64625;50.882;4.376;2023-05-07T05:28:40;20.17;;;4.88;;
37983;SDS011;64625;50.882;4.376;2023-05-07T05:31:06;15.77;;;4.60;;
37983;SDS011;64625;50.882;4.376;2023-05-07T05:33:32;7.55;;;4.10;;
37983;SDS011;64625;50.882;4.376;2023-05-07T05:35:58;8.38;;;4.57;;
37983;SDS011;64625;50.882;4.376;2023-05-07T05:38:24;8.60;;;4.35;;
37983;SDS011;64625;50.882;4.376;2023-05-07T05:40:50;14.25;;;6.35;;
37983;SDS011;64625;50.882;4.376;2023-05-07T05:43:16;13.85;;;4.88;;
37983;SDS011;64625;50.882;4.376;2023-05-07T05:45:42;15.48;;;5.78;;
37983;SDS011;64625;50.882;4.376;2023-05-07T05:48:08;15.68;;;5.28;;
37983;SDS011;64625;50.882;4.376;2023-05-07T05:50:34;18.92;;;5.95;;
37983;SDS011;64625;50.882;4.376;2023-05-07T05:53:02;14.55;;;4.90;;
37983;SDS011;64625;50.882;4.376;2023-05-07T05:55:28;9.23;;;4.35;;
37983;SDS011;64625;50.882;4.376;2023-05-07T05:57:55;13.40;;;4.88;;
37983;SDS011;64625;50.882;4.376;2023-05-07T06:00:21;15.43;;;4.50;;
37983;SDS011;64625;50.882;4.376;2023-05-07T06:02:47;17.70;;;5.70;;
37983;SDS011;64625;50.882;4.376;2023-05-07T06:05:13;19.20;;;5.32;;
37983;SDS011;64625;50.882;4.376;2023-05-07T06:07:40;13.82;;;4.50;;
37983;SDS011;64625;50.882;4.376;2023-05-07T06:10:06;14.30;;;5.43;;
37983;SDS011;64625;50.882;4.376;2023-05-07T06:12:32;20.13;;;5.70;;
37983;SDS011;64625;50.882;4.376;2023-05-07T06:14:58;13.48;;;4.90;;
37983;SDS011;64625;50.882;4.376;2023-05-07T06:17:23;17.40;;;5.82;;
37983;SDS011;64625;50.882;4.376;2023-05-07T06:19:49;13.02;;;5.30;;
37983;SDS011;64625;50.882;4.376;2023-05-07T06:22:16;9.48;;;3.92;;
37983;SDS011;64625;50.882;4.376;2023-05-07T06:24:41;10.23;;;3.88;;
37983;SDS011;64625;50.882;4.376;2023-05-07T06:27:07;17.80;;;5.15;;
37983;SDS011;64625;50.882;4.376;2023-05-07T06:29:33;17.55;;;4.10;;
37983;SDS011;64625;50.882;4.376;2023-05-07T06:32:08;19.98;;;5.97;;
37983;SDS011;64625;50.882;4.376;2023-05-07T06:34:35;9.98;;;3.47;;
37983;SDS011;64625;50.882;4.376;2023-05-07T06:37:02;14.63;;;4.28;;
37983;SDS011;64625;50.882;4.376;2023-05-07T06:39:28;12.20;;;3.92;;
37983;SDS011;64625;50.882;4.376;2023-05-07T06:41:54;14.70;;;5.55;;
37983;SDS011;64625;50.882;4.376;2023-05-07T06:44:20;17.30;;;4.78;;
37983;SDS011;64625;50.882;4.376;2023-05-07T06:46:46;10.77;;;3.33;;
37983;SDS011;64625;50.882;4.376;2023-05-07T06:49:12;13.68;;;4.13;;
37983;SDS011;64625;50.882;4.376;2023-05-07T06:51:38;11.63;;;3.83;;
37983;SDS011;64625;50.882;4.376;2023-05-07T06:54:04;16.63;;;4.70;;
37983;SDS011;64625;50.882;4.376;2023-05-07T06:56:30;12.70;;;4.18;;
37983;SDS011;64625;50.882;4.376;2023-05-07T06:58:56;8.45;;;3.40;;
37983;SDS011;64625;50.882;4.376;2023-05-07T07:01:22;13.38;;;4.32;;
37983;SDS011;64625;50.882;4.376;2023-05-07T07:03:48;15.35;;;4.22;;
37983;SDS011;64625;50.882;4.376;2023-05-07T07:06:14;10.30;;;4.13;;
37983;SDS011;64625;50.882;4.376;2023-05-07T07:08:40;15.90;;;4.78;;
37983;SDS011;64625;50.882;4.376;2023-05-07T07:11:05;13.88;;;4.07;;
37983;SDS011;64625;50.882;4.376;2023-05-07T07:13:32;21.80;;;4.85;;
37983;SDS011;64625;50.882;4.376;2023-05-07T07:15:57;7.30;;;3.72;;
37983;SDS011;64625;50.882;4.376;2023-05-07T07:18:23;7.75;;;3.60;;
37983;SDS011;64625;50.882;4.376;2023-05-07T07:20:49;15.02;;;4.90;;
37983;SDS011;64625;50.882;4.376;2023-05-07T07:23:15;11.82;;;3.95;;
37983;SDS011;64625;50.882;4.376;2023-05-07T07:25:41;13.15;;;4.72;;
37983;SDS011;64625;50.882;4.376;2023-05-07T07:28:06;7.05;;;3.75;;
37983;SDS011;64625;50.882;4.376;2023-05-07T07:30:32;19.10;;;4.28;;
37983;SDS011;64625;50.882;4.376;2023-05-07T07:32:58;10.48;;;4.72;;
37983;SDS011;64625;50.882;4.376;2023-05-07T07:35:33;19.23;;;4.25;;
37983;SDS011;64625;50.882;4.376;2023-05-07T07:37:59;13.23;;;3.75;;
37983;SDS011;64625;50.882;4.376;2023-05-07T07:40:26;8.15;;;3.00;;
37983;SDS011;64625;50.882;4.376;2023-05-07T07:42:53;13.15;;;4.43;;
37983;SDS011;64625;50.882;4.376;2023-05-07T07:45:20;8.68;;;2.85;;
37983;SDS011;64625;50.882;4.376;2023-05-07T07:47:45;16.38;;;4.13;;
37983;SDS011;64625;50.882;4.376;2023-05-07T07:50:11;11.98;;;3.38;;
37983;SDS011;64625;50.882;4.376;2023-05-07T07:52:37;12.57;;;4.00;;
37983;SDS011;64625;50.882;4.376;2023-05-07T07:55:03;11.73;;;4.85;;
37983;SDS011;64625;50.882;4.376;2023-05-07T07:57:30;8.70;;;4.18;;
37983;SDS011;64625;50.882;4.376;2023-05-07T07:59:56;12.85;;;4.68;;
37983;SDS011;64625;50.882;4.376;2023-05-07T08:02:21;9.30;;;3.83;;
37983;SDS011;64625;50.882;4.376;2023-05-07T08:04:47;5.75;;;3.08;;
37983;SDS011;64625;50.882;4.376;2023-05-07T08:07:13;9.23;;;3.25;;
37983;SDS011;64625;50.882;4.376;2023-05-07T08:09:39;7.78;;;3.38;;
37983;SDS011;64625;50.882;4.376;2023-05-07T08:12:05;9.90;;;3.70;;
37983;SDS011;64625;50.882;4.376;2023-05-07T08:14:33;9.73;;;3.63;;
37983;SDS011;64625;50.882;4.376;2023-05-07T08:16:59;8.55;;;3.42;;
37983;SDS011;64625;50.882;4.376;2023-05-07T08:19:25;12.73;;;3.70;;
37983;SDS011;64625;50.882;4.376;2023-05-07T08:21:51;15.40;;;4.00;;
37983;SDS011;64625;50.882;4.376;2023-05-07T08:24:17;15.40;;;4.10;;
37983;SDS011;64625;50.882;4.376;2023-05-07T08:26:43;8.02;;;4.25;;
37983;SDS011;64625;50.882;4.376;2023-05-07T08:29:10;13.95;;;3.90;;
37983;SDS011;64625;50.882;4.376;2023-05-07T08:31:36;12.45;;;3.53;;
37983;SDS011;64625;50.882;4.376;2023-05-07T08:34:04;12.05;;;3.85;;
37983;SDS011;64625;50.882;4.376;2023-05-07T08:36:30;11.05;;;3.40;;
37983;SDS011;64625;50.882;4.376;2023-05-07T08:38:56;11.20;;;3.83;;
37983;SDS011;64625;50.882;4.376;2023-05-07T08:41:22;14.95;;;4.32;;
37983;SDS011;64625;50.882;4.376;2023-05-07T08:43:48;10.63;;;3.75;;
37983;SDS011;64625;50.882;4.376;2023-05-07T08:46:19;9.75;;;4.43;;
37983;SDS011;64625;50.882;4.376;2023-05-07T08:48:48;9.82;;;4.45;;
37983;SDS011;64625;50.882;4.376;2023-05-07T08:51:16;7.53;;;3.60;;
37983;SDS011;64625;50.882;4.376;2023-05-07T08:53:46;9.63;;;4.20;;
37983;SDS011;64625;50.882;4.376;2023-05-07T08:56:14;8.07;;;3.30;;
37983;SDS011;64625;50.882;4.376;2023-05-07T08:58:41;13.38;;;4.57;;
37983;SDS011;64625;50.882;4.376;2023-05-07T09:01:08;10.63;;;4.57;;
37983;SDS011;64625;50.882;4.376;2023-05-07T09:03:38;8.57;;;3.58;;
37983;SDS011;64625;50.882;4.376;2023-05-07T09:06:05;5.50;;;3.58;;
37983;SDS011;64625;50.882;4.376;2023-05-07T09:08:34;11.07;;;3.72;;
37983;SDS011;64625;50.882;4.376;2023-05-07T09:11:01;11.75;;;4.40;;
37983;SDS011;64625;50.882;4.376;2023-05-07T09:13:28;10.48;;;3.60;;
37983;SDS011;64625;50.882;4.376;2023-05-07T09:15:55;11.52;;;4.82;;
37983;SDS011;64625;50.882;4.376;2023-05-07T09:18:21;9.57;;;3.92;;
37983;SDS011;64625;50.882;4.376;2023-05-07T09:20:50;12.40;;;4.65;;
37983;SDS011;64625;50.882;4.376;2023-05-07T09:23:16;12.65;;;4.38;;
37983;SDS011;64625;50.882;4.376;2023-05-07T09:25:42;9.48;;;4.45;;
37983;SDS011;64625;50.882;4.376;2023-05-07T09:28:07;6.78;;;4.43;;
37983;SDS011;64625;50.882;4.376;2023-05-07T09:30:35;13.43;;;4.97;;
37983;SDS011;64625;50.882;4.376;2023-05-07T09:33:02;13.18;;;5.45;;
37983;SDS011;64625;50.882;4.376;2023-05-07T09:35:29;15.38;;;4.78;;
37983;SDS011;64625;50.882;4.376;2023-05-07T09:37:57;19.20;;;5.28;;
37983;SDS011;64625;50.882;4.376;2023-05-07T09:40:25;10.57;;;5.20;;
37983;SDS011;64625;50.882;4.376;2023-05-07T09:42:52;15.57;;;6.10;;
37983;SDS011;64625;50.882;4.376;2023-05-07T09:45:22;20.83;;;5.68;;
37983;SDS011;64625;50.882;4.376;2023-05-07T09:47:55;15.05;;;6.13;;
37983;SDS011;64625;50.882;4.376;2023-05-07T09:50:46;14.55;;;6.40;;
37983;SDS011;64625;50.882;4.376;2023-05-07T09:53:14;10.60;;;5.28;;
37983;SDS011;64625;50.882;4.376;2023-05-07T09:55:41;21.38;;;6.60;;
37983;SDS011;64625;50.882;4.376;2023-05-07T09:58:08;13.77;;;6.32;;
37983;SDS011;64625;50.882;4.376;2023-05-07T10:00:37;17.63;;;6.13;;
37983;SDS011;64625;50.882;4.376;2023-05-07T10:03:04;13.27;;;6.60;;
37983;SDS011;64625;50.882;4.376;2023-05-07T10:05:30;13.85;;;6.80;;
37983;SDS011;64625;50.882;4.376;2023-05-07T10:07:57;15.93;;;7.68;;
37983;SDS011;64625;50.882;4.376;2023-05-07T10:10:25;20.50;;;6.32;;
37983;SDS011;64625;50.882;4.376;2023-05-07T10:12:52;11.13;;;7.18;;
37983;SDS011;64625;50.882;4.376;2023-05-07T10:15:19;16.73;;;7.15;;
37983;SDS011;64625;50.882;4.376;2023-05-07T10:17:45;20.25;;;7.97;;
37983;SDS011;64625;50.882;4.376;2023-05-07T10:20:11;15.52;;;7.05;;
37983;SDS011;64625;50.882;4.376;2023-05-07T10:22:38;14.48;;;7.47;;
37983;SDS011;64625;50.882;4.376;2023-05-07T10:25:14;9.80;;;7.40;;
37983;SDS011;64625;50.882;4.376;2023-05-07T10:27:46;9.80;;;4.93;;
37983;SDS011;64625;50.882;4.376;2023-05-07T10:32:59;13.43;;;5.78;;
37983;SDS011;64625;50.882;4.376;2023-05-07T10:35:31;14.53;;;5.87;;
37983;SDS011;64625;50.882;4.376;2023-05-07T10:38:05;12.18;;;6.68;;
37983;SDS011;64625;50.882;4.376;2023-05-07T10:40:31;16.75;;;7.15;;
37983;SDS011;64625;50.882;4.376;2023-05-07T10:45:25;12.52;;;6.88;;
37983;SDS011;64625;50.882;4.376;2023-05-07T10:48:11;22.60;;;7.38;;
37983;SDS011;64625;50.882;4.376;2023-05-07T10:50:39;14.43;;;6.93;;
37983;SDS011;64625;50.882;4.376;2023-05-07T10:55:47;20.95;;;7.90;;
37983;SDS011;64625;50.882;4.376;2023-05-07T10:58:28;17.77;;;8.38;;
37983;SDS011;64625;50.882;4.376;2023-05-07T11:00:58;18.25;;;7.93;;
37983;SDS011;64625;50.882;4.376;2023-05-07T11:03:25;12.18;;;6.82;;
37983;SDS011;64625;50.882;4.376;2023-05-07T11:08:55;19.15;;;6.93;;
37983;SDS011;64625;50.882;4.376;2023-05-07T11:14:11;21.33;;;6.95;;
37983;SDS011;64625;50.882;4.376;2023-05-07T11:16:37;16.85;;;7.15;;
37983;SDS011;64625;50.882;4.376;2023-05-07T11:19:05;11.90;;;6.72;;
37983;SDS011;64625;50.882;4.376;2023-05-07T11:24:04;13.45;;;6.18;;
37983;SDS011;64625;50.882;4.376;2023-05-07T11:26:53;17.42;;;7.72;;
37983;SDS011;64625;50.882;4.376;2023-05-07T11:29:19;18.13;;;7.00;;
37983;SDS011;64625;50.882;4.376;2023-05-07T11:31:49;14.63;;;6.63;;
37983;SDS011;64625;50.882;4.376;2023-05-07T11:34:22;14.57;;;8.73;;
37983;SDS011;64625;50.882;4.376;2023-05-07T11:36:49;12.30;;;7.57;;
37983;SDS011;64625;50.882;4.376;2023-05-07T11:39:27;11.90;;;6.75;;
37983;SDS011;64625;50.882;4.376;2023-05-07T11:41:55;19.17;;;6.60;;
37983;SDS011;64625;50.882;4.376;2023-05-07T11:44:21;9.43;;;5.95;;
37983;SDS011;64625;50.882;4.376;2023-05-07T11:46:47;14.27;;;7.38;;
37983;SDS011;64625;50.882;4.376;2023-05-07T11:49:14;19.85;;;6.40;;
37983;SDS011;64625;50.882;4.376;2023-05-07T11:51:40;15.02;;;6.30;;
37983;SDS011;64625;50.882;4.376;2023-05-07T11:54:08;16.50;;;5.72;;
37983;SDS011;64625;50.882;4.376;2023-05-07T11:56:36;12.20;;;5.68;;
37983;SDS011;64625;50.882;4.376;2023-05-07T11:59:02;15.00;;;6.63;;
37983;SDS011;64625;50.882;4.376;2023-05-07T12:01:28;12.60;;;5.35;;
37983;SDS011;64625;50.882;4.376;2023-05-07T12:03:54;11.30;;;5.25;;
37983;SDS011;64625;50.882;4.376;2023-05-07T12:06:20;9.77;;;4.93;;
37983;SDS011;64625;50.882;4.376;2023-05-07T12:08:46;15.15;;;5.00;;
37983;SDS011;64625;50.882;4.376;2023-05-07T12:11:13;11.18;;;5.25;;
37983;SDS011;64625;50.882;4.376;2023-05-07T12:13:50;8.93;;;5.25;;
37983;SDS011;64625;50.882;4.376;2023-05-07T12:16:16;6.82;;;4.63;;
37983;SDS011;64625;50.882;4.376;2023-05-07T12:18:47;14.23;;;6.03;;
37983;SDS011;64625;50.882;4.376;2023-05-07T12:21:13;6.68;;;4.63;;
37983;SDS011;64625;50.882;4.376;2023-05-07T12:23:41;10.23;;;5.28;;
37983;SDS011;64625;50.882;4.376;2023-05-07T12:26:08;10.15;;;4.90;;
37983;SDS011;64625;50.882;4.376;2023-05-07T12:28:37;6.85;;;3.97;;
37983;SDS011;64625;50.882;4.376;2023-05-07T12:31:04;7.28;;;3.50;;
37983;SDS011;64625;50.882;4.376;2023-05-07T12:33:30;11.60;;;4.88;;
37983;SDS011;64625;50.882;4.376;2023-05-07T12:35:57;11.80;;;4.28;;
37983;SDS011;64625;50.882;4.376;2023-05-07T12:38:27;9.48;;;4.15;;
37983;SDS011;64625;50.882;4.376;2023-05-07T12:41:03;6.88;;;4.13;;
37983;SDS011;64625;50.882;4.376;2023-05-07T12:43:29;6.47;;;4.22;;
37983;SDS011;64625;50.882;4.376;2023-05-07T12:45:56;13.32;;;4.00;;
37983;SDS011;64625;50.882;4.376;2023-05-07T12:48:23;5.65;;;3.35;;
37983;SDS011;64625;50.882;4.376;2023-05-07T12:50:55;6.93;;;3.20;;
37983;SDS011;64625;50.882;4.376;2023-05-07T12:53:23;5.15;;;3.78;;
37983;SDS011;64625;50.882;4.376;2023-05-07T12:55:52;6.20;;;3.40;;
37983;SDS011;64625;50.882;4.376;2023-05-07T12:58:24;6.28;;;3.78;;
37983;SDS011;64625;50.882;4.376;2023-05-07T13:00:55;7.22;;;3.50;;
37983;SDS011;64625;50.882;4.376;2023-05-07T13:05:53;10.77;;;4.78;;
37983;SDS011;64625;50.882;4.376;2023-05-07T13:08:25;5.40;;;3.92;;
37983;SDS011;64625;50.882;4.376;2023-05-07T13:10:57;9.98;;;4.53;;
37983;SDS011;64625;50.882;4.376;2023-05-07T13:13:24;8.70;;;3.85;;
37983;SDS011;64625;50.882;4.376;2023-05-07T13:15:53;6.15;;;3.72;;
37983;SDS011;64625;50.882;4.376;2023-05-07T13:18:19;8.63;;;3.90;;
37983;SDS011;64625;50.882;4.376;2023-05-07T13:20:45;8.27;;;3.65;;
37983;SDS011;64625;50.882;4.376;2023-05-07T13:23:10;6.68;;;3.80;;
37983;SDS011;64625;50.882;4.376;2023-05-07T13:25:36;4.85;;;3.97;;
37983;SDS011;64625;50.882;4.376;2023-05-07T13:28:02;5.22;;;4.32;;
37983;SDS011;64625;50.882;4.376;2023-05-07T13:30:29;7.72;;;5.15;;
37983;SDS011;64625;50.882;4.376;2023-05-07T13:35:44;5.20;;;4.43;;
37983;SDS011;64625;50.882;4.376;2023-05-07T13:38:10;6.75;;;5.55;;
37983;SDS011;64625;50.882;4.376;2023-05-07T13:40:36;8.73;;;6.07;;
37983;SDS011;64625;50.882;4.376;2023-05-07T13:43:05;11.38;;;4.57;;
37983;SDS011;64625;50.882;4.376;2023-05-07T13:45:31;6.80;;;5.90;;
37983;SDS011;64625;50.882;4.376;2023-05-07T13:47:56;9.63;;;6.28;;
37983;SDS011;64625;50.882;4.376;2023-05-07T13:50:23;9.25;;;6.93;;
37983;SDS011;64625;50.882;4.376;2023-05-07T13:52:49;11.98;;;6.15;;
37983;SDS011;64625;50.882;4.376;2023-05-07T13:55:18;10.13;;;7.10;;
37983;SDS011;64625;50.882;4.376;2023-05-07T13:57:45;9.82;;;7.43;;
37983;SDS011;64625;50.882;4.376;2023-05-07T14:00:12;12.20;;;7.75;;
37983;SDS011;64625;50.882;4.376;2023-05-07T14:02:39;10.57;;;8.00;;
37983;SDS011;64625;50.882;4.376;2023-05-07T14:05:05;11.30;;;8.30;;
37983;SDS011;64625;50.882;4.376;2023-05-07T14:07:32;11.55;;;7.95;;
37983;SDS011;64625;50.882;4.376;2023-05-07T14:09:57;11.00;;;8.85;;
37983;SDS011;64625;50.882;4.376;2023-05-07T14:12:23;9.48;;;7.88;;
37983;SDS011;64625;50.882;4.376;2023-05-07T14:14:50;9.07;;;7.88;;
37983;SDS011;64625;50.882;4.376;2023-05-07T14:17:18;8.23;;;7.43;;
37983;SDS011;64625;50.882;4.376;2023-05-07T14:19:45;12.40;;;8.07;;
37983;SDS011;64625;50.882;4.376;2023-05-07T14:22:12;12.75;;;8.23;;
37983;SDS011;64625;50.882;4.376;2023-05-07T14:24:39;8.05;;;7.25;;
37983;SDS011;64625;50.882;4.376;2023-05-07T14:27:05;10.02;;;8.27;;
37983;SDS011;64625;50.882;4.376;2023-05-07T14:29:31;8.88;;;7.38;;
37983;SDS011;64625;50.882;4.376;2023-05-07T14:31:57;12.13;;;7.10;;
37983;SDS011;64625;50.882;4.376;2023-05-07T14:34:23;11.05;;;7.47;;
37983;SDS011;64625;50.882;4.376;2023-05-07T14:36:49;9.82;;;7.68;;
37983;SDS011;64625;50.882;4.376;2023-05-07T14:39:15;9.32;;;7.75;;
37983;SDS011;64625;50.882;4.376;2023-05-07T14:41:41;9.43;;;7.20;;
37983;SDS011;64625;50.882;4.376;2023-05-07T14:44:06;11.45;;;7.53;;
37983;SDS011;64625;50.882;4.376;2023-05-07T14:46:32;11.52;;;7.88;;
37983;SDS011;64625;50.882;4.376;2023-05-07T14:49:01;9.40;;;8.45;;
37983;SDS011;64625;50.882;4.376;2023-05-07T14:51:28;12.65;;;8.65;;
37983;SDS011;64625;50.882;4.376;2023-05-07T14:53:54;9.55;;;7.80;;
37983;SDS011;64625;50.882;4.376;2023-05-07T14:56:20;12.45;;;8.05;;
37983;SDS011;64625;50.882;4.376;2023-05-07T14:58:47;11.77;;;8.30;;